createdAt,value
2022-10-13T05:42:59.437Z,5.03
2022-10-13T05:45:30.605Z,5.35
2022-10-13T05:47:58.659Z,4.80
2022-10-13T05:50:26.938Z,4.80
2022-10-13T05:52:55.152Z,5.22
2022-10-13T05:55:23.271Z,5.15
2022-10-13T05:57:53.151Z,4.90
2022-10-13T06:00:22.640Z,4.57
2022-10-13T06:02:54.891Z,4.70
2022-10-13T06:05:25.691Z,4.78
2022-10-13T06:07:55.426Z,4.90
2022-10-13T06:10:24.609Z,4.75
2022-10-13T06:12:52.845Z,4.97
2022-10-13T06:15:27.838Z,4.78
2022-10-13T06:17:56.362Z,4.93
2022-10-13T06:20:24.443Z,5.05
2022-10-13T06:22:52.531Z,5.68
2022-10-13T06:25:20.635Z,5.18
2022-10-13T06:27:48.752Z,5.18
2022-10-13T06:30:16.922Z,4.93
2022-10-13T06:32:46.407Z,5.53
2022-10-13T06:35:14.683Z,5.00
2022-10-13T06:37:42.964Z,5.00
2022-10-13T06:40:12.194Z,4.80
2022-10-13T06:42:40.428Z,5.05
2022-10-13T06:45:09.282Z,5.07
2022-10-13T06:47:37.363Z,4.53
2022-10-13T06:50:07.518Z,5.10
2022-10-13T06:52:35.615Z,5.10
2022-10-13T06:55:03.705Z,5.28
2022-10-13T06:57:31.830Z,4.93
2022-10-13T06:59:59.919Z,5.10
2022-10-13T07:02:28.065Z,4.80
2022-10-13T07:04:56.131Z,4.93
2022-10-13T07:07:25.665Z,5.45
2022-10-13T07:09:53.769Z,4.57
2022-10-13T07:12:22.489Z,4.43
2022-10-13T07:14:50.772Z,5.30
2022-10-13T07:17:19.102Z,4.90
2022-10-13T07:19:48.635Z,4.47
2022-10-13T07:22:16.967Z,4.72
2022-10-13T07:24:46.399Z,4.25
2022-10-13T07:27:14.476Z,4.90
2022-10-13T07:29:42.837Z,4.60
2022-10-13T07:32:10.894Z,4.45
2022-10-13T07:34:38.994Z,4.82
2022-10-13T07:37:07.070Z,4.20
2022-10-13T07:39:35.156Z,4.72
2022-10-13T07:42:04.775Z,4.45
2022-10-13T07:44:32.829Z,4.43
2022-10-13T07:47:00.921Z,4.35
2022-10-13T07:49:29.011Z,4.35
2022-10-13T07:51:57.175Z,4.80
2022-10-13T07:54:27.481Z,4.72
2022-10-13T07:56:56.750Z,4.70
2022-10-13T07:59:26.379Z,4.40
2022-10-13T08:01:54.528Z,4.60
2022-10-13T08:04:22.650Z,4.72
2022-10-13T08:06:50.772Z,4.30
2022-10-13T08:09:18.902Z,4.60
2022-10-13T08:11:47.037Z,4.32
2022-10-13T08:14:15.213Z,4.57
2022-10-13T08:16:48.710Z,4.57
2022-10-13T08:19:20.251Z,4.60
2022-10-13T08:22:06.632Z,4.63
2022-10-13T08:24:36.350Z,4.72
2022-10-13T08:27:04.817Z,4.22
2022-10-13T08:29:33.022Z,4.20
2022-10-13T08:32:02.582Z,4.15
2022-10-13T08:34:30.679Z,4.05
2022-10-13T08:37:00.250Z,4.68
2022-10-13T08:39:28.287Z,5.40
2022-10-13T08:41:57.793Z,5.05
2022-10-13T08:47:36.685Z,4.88
2022-10-13T08:50:11.669Z,5.25
2022-10-13T08:52:50.129Z,5.63
2022-10-13T08:55:24.788Z,5.32
2022-10-13T08:57:53.199Z,5.65
2022-10-13T09:00:21.526Z,5.88
2022-10-13T09:02:51.678Z,5.90
2022-10-13T09:05:29.027Z,5.80
2022-10-13T09:07:59.288Z,6.00
2022-10-13T09:10:27.435Z,6.28
2022-10-13T09:12:56.084Z,6.15
2022-10-13T09:15:24.340Z,6.25
2022-10-13T09:18:11.064Z,6.50
2022-10-13T09:20:39.335Z,6.00
2022-10-13T09:23:17.368Z,6.75
2022-10-13T09:25:47.851Z,6.72
2022-10-13T09:28:20.030Z,6.95
2022-10-13T09:30:48.749Z,6.55
2022-10-13T09:33:25.788Z,6.03
2022-10-13T09:36:13.112Z,6.22
2022-10-13T09:38:43.103Z,5.63
2022-10-13T09:41:18.338Z,6.30
2022-10-13T09:44:01.095Z,6.38
2022-10-13T09:46:32.733Z,6.22
2022-10-13T09:49:05.860Z,6.25
2022-10-13T09:51:39.912Z,6.90
2022-10-13T09:54:26.379Z,6.38
2022-10-13T09:56:59.282Z,6.50
2022-10-13T09:59:33.923Z,6.28
2022-10-13T10:02:18.044Z,5.85
2022-10-13T10:04:52.436Z,6.75
2022-10-13T10:07:24.143Z,5.43
2022-10-13T10:09:55.822Z,6.13
2022-10-13T10:12:28.049Z,6.07
2022-10-13T10:14:56.691Z,6.20
2022-10-13T10:17:30.511Z,6.03
2022-10-13T10:20:13.094Z,6.25
2022-10-13T10:22:50.571Z,6.72
2022-10-13T10:25:28.099Z,6.55
2022-10-13T10:28:11.824Z,7.22
2022-10-13T10:30:49.013Z,5.88
2022-10-13T10:33:23.087Z,5.38
2022-10-13T10:35:59.945Z,5.72
2022-10-13T10:38:36.736Z,5.45
2022-10-13T10:41:13.988Z,6.03
2022-10-13T10:43:55.105Z,5.97
2022-10-13T10:46:25.605Z,6.30
2022-10-13T10:48:58.267Z,6.05
2022-10-13T10:51:33.865Z,5.50
2022-10-13T10:54:17.814Z,5.82
2022-10-13T10:56:50.731Z,6.13
2022-10-13T10:59:27.913Z,5.80
2022-10-13T11:02:11.812Z,5.70
2022-10-13T11:04:44.896Z,6.05
2022-10-13T11:07:36.409Z,5.75
2022-10-13T11:10:21.116Z,6.07
2022-10-13T11:13:22.362Z,5.60
2022-10-13T11:15:50.888Z,5.57
2022-10-13T11:19:10.664Z,5.32
2022-10-13T11:22:12.776Z,5.43
2022-10-13T11:25:20.168Z,6.10
2022-10-13T11:27:49.677Z,5.95
2022-10-13T11:30:49.997Z,5.45
2022-10-13T11:33:52.452Z,5.75
2022-10-13T11:36:51.854Z,5.28
2022-10-13T11:40:12.200Z,5.53
2022-10-13T11:43:05.255Z,5.28
2022-10-13T11:45:58.208Z,5.07
2022-10-13T11:49:01.696Z,4.85
2022-10-13T11:51:41.309Z,5.75
2022-10-13T11:54:22.802Z,5.47
2022-10-13T11:56:53.273Z,5.07
2022-10-13T11:59:25.674Z,5.35
2022-10-13T12:01:58.927Z,5.72
2022-10-13T12:04:29.099Z,5.20
2022-10-13T12:07:01.774Z,6.80
2022-10-13T12:09:32.184Z,11.18
2022-10-13T12:12:03.616Z,9.45
2022-10-13T12:17:24.076Z,11.50
2022-10-13T12:19:52.897Z,11.60
2022-10-13T12:22:21.044Z,11.60
2022-10-13T12:24:59.893Z,9.98
2022-10-13T12:27:29.582Z,10.10
2022-10-13T12:29:59.202Z,9.55
2022-10-13T12:32:29.539Z,10.13
2022-10-13T12:34:57.953Z,10.85
2022-10-13T12:37:29.335Z,10.35
2022-10-13T12:39:59.307Z,9.30
2022-10-13T12:42:30.522Z,9.70
2022-10-13T12:45:01.641Z,8.98
2022-10-13T12:47:39.445Z,9.43
2022-10-13T12:50:32.890Z,10.15
2022-10-13T12:53:16.868Z,10.25
2022-10-13T12:55:58.891Z,10.13
2022-10-13T12:58:30.589Z,9.50
2022-10-13T13:01:10.996Z,10.25
2022-10-13T13:03:40.165Z,9.38
2022-10-13T13:06:23.260Z,9.13
2022-10-13T13:09:17.023Z,8.48
2022-10-13T13:11:45.199Z,9.13
2022-10-13T13:14:37.529Z,8.52
2022-10-13T13:17:12.173Z,9.02
2022-10-13T13:19:41.342Z,8.57
2022-10-13T13:22:09.867Z,8.98
2022-10-13T13:24:41.025Z,9.45
2022-10-13T13:27:21.838Z,8.95
2022-10-13T13:32:20.883Z,9.10
2022-10-13T13:34:49.395Z,8.45
2022-10-13T13:37:30.750Z,9.05
2022-10-13T13:39:59.496Z,8.70
2022-10-13T13:42:29.346Z,9.30
2022-10-13T13:44:57.640Z,7.53
2022-10-13T13:47:29.334Z,7.90
2022-10-13T13:49:58.215Z,8.73
2022-10-13T13:52:26.971Z,8.60
2022-10-13T13:54:56.159Z,8.18
2022-10-13T13:57:24.348Z,7.78
2022-10-13T13:59:52.556Z,7.38
2022-10-13T14:02:22.277Z,7.28
2022-10-13T14:04:52.063Z,7.63
2022-10-13T14:07:20.796Z,7.47
2022-10-13T14:09:49.177Z,8.13
2022-10-13T14:12:17.668Z,7.53
2022-10-13T14:14:45.964Z,7.32
2022-10-13T14:17:14.121Z,7.78
2022-10-13T14:19:43.156Z,7.90
2022-10-13T14:22:12.595Z,8.07
2022-10-13T14:24:40.705Z,7.57
2022-10-13T14:27:09.061Z,7.60
2022-10-13T14:29:37.504Z,7.70
2022-10-13T14:32:06.151Z,7.25
2022-10-13T14:34:34.290Z,8.13
2022-10-13T14:37:02.387Z,7.78
2022-10-13T14:39:31.851Z,8.13
2022-10-13T14:42:00.019Z,7.20
2022-10-13T14:44:28.218Z,7.75
2022-10-13T14:46:56.365Z,7.25
2022-10-13T14:49:24.476Z,7.70
2022-10-13T14:51:52.629Z,8.00
2022-10-13T14:54:20.694Z,7.15
2022-10-13T14:56:50.185Z,7.25
2022-10-13T14:59:18.643Z,6.38
2022-10-13T15:01:48.248Z,7.25
2022-10-13T15:04:16.446Z,6.60
2022-10-13T15:06:44.617Z,7.63
2022-10-13T15:09:13.028Z,7.55
2022-10-13T15:11:41.140Z,6.88
2022-10-13T15:14:10.873Z,6.38
2022-10-13T15:16:39.141Z,6.72
2022-10-13T15:19:07.232Z,6.78
2022-10-13T15:21:35.416Z,6.03
2022-10-13T15:24:03.611Z,6.18
2022-10-13T15:26:31.975Z,7.28
2022-10-13T15:29:00.079Z,6.50
2022-10-13T15:31:30.960Z,6.85
2022-10-13T15:36:27.137Z,6.50
2022-10-13T15:38:55.217Z,6.93
2022-10-13T15:41:25.501Z,6.28
2022-10-13T15:43:53.795Z,7.32
2022-10-13T15:46:26.240Z,6.78
2022-10-13T15:48:55.771Z,7.13
2022-10-13T15:51:26.831Z,7.45
2022-10-13T15:53:55.237Z,6.47
2022-10-13T15:56:23.610Z,6.65
2022-10-13T15:58:51.768Z,6.75
2022-10-13T16:01:20.061Z,7.15
2022-10-13T16:03:48.243Z,7.05
2022-10-13T16:06:17.744Z,7.03
2022-10-13T16:08:45.841Z,6.88
2022-10-13T16:11:15.677Z,7.03
2022-10-13T16:13:46.599Z,6.70
2022-10-13T16:18:43.698Z,6.68
2022-10-13T16:21:18.279Z,7.40
2022-10-13T16:23:48.569Z,6.75
2022-10-13T16:26:18.295Z,7.78
2022-10-13T16:28:47.054Z,6.85
2022-10-13T16:31:17.481Z,7.03
2022-10-13T16:33:46.687Z,7.28
2022-10-13T16:36:17.093Z,7.18
2022-10-13T16:38:45.981Z,6.97
2022-10-13T16:41:18.132Z,6.85
2022-10-13T16:43:47.176Z,6.82
2022-10-13T16:46:16.591Z,7.35
2022-10-13T16:48:46.383Z,6.90
2022-10-13T16:51:16.513Z,7.22
2022-10-13T16:53:48.029Z,7.43
2022-10-13T16:56:21.923Z,7.35
2022-10-13T16:58:50.674Z,6.90
2022-10-13T17:01:18.829Z,7.72
2022-10-13T17:03:48.276Z,7.30
2022-10-13T17:06:17.103Z,7.47
2022-10-13T17:08:45.624Z,7.20
2022-10-13T17:11:19.444Z,6.70
2022-10-13T17:13:47.924Z,7.05
2022-10-13T17:16:16.494Z,8.13
2022-10-13T17:18:44.677Z,6.90
2022-10-13T17:21:15.057Z,7.50
2022-10-13T17:23:48.134Z,6.65
2022-10-13T17:26:19.321Z,8.10
2022-10-13T17:28:47.927Z,6.78
2022-10-13T17:31:18.062Z,7.47
2022-10-13T17:33:46.937Z,7.40
2022-10-13T17:36:16.684Z,7.43
2022-10-13T17:38:45.376Z,7.25
2022-10-13T17:41:14.133Z,7.22
2022-10-13T17:43:44.413Z,6.85
2022-10-13T17:49:03.133Z,6.63
2022-10-13T17:51:31.708Z,7.15
2022-10-13T17:54:01.189Z,6.90
2022-10-13T17:56:30.453Z,7.45
2022-10-13T17:59:00.906Z,6.72
2022-10-13T18:01:31.652Z,7.10
2022-10-13T18:06:32.562Z,7.10
2022-10-13T18:09:12.228Z,6.75
2022-10-13T18:11:43.329Z,7.05
2022-10-13T18:14:16.670Z,6.95
2022-10-13T18:16:44.821Z,7.45
2022-10-13T18:19:12.914Z,7.35
2022-10-13T18:21:41.116Z,7.30
2022-10-13T18:24:11.206Z,6.85
2022-10-13T18:26:39.594Z,7.30
2022-10-13T18:29:09.554Z,6.32
2022-10-13T18:31:40.497Z,7.10
2022-10-13T18:36:40.429Z,6.78
2022-10-13T18:39:11.427Z,7.05
2022-10-13T18:44:08.009Z,7.00
2022-10-13T18:46:38.575Z,7.30
2022-10-13T18:49:08.800Z,6.72
2022-10-13T18:51:36.912Z,6.97
2022-10-13T18:54:06.608Z,7.43
2022-10-13T18:56:36.992Z,7.03
2022-10-13T18:59:06.860Z,6.65
2022-10-13T19:01:37.150Z,7.05
2022-10-13T19:04:07.036Z,6.60
2022-10-13T19:06:35.545Z,6.35
2022-10-13T19:09:05.896Z,7.30
2022-10-13T19:11:34.833Z,7.47
2022-10-13T19:14:03.094Z,6.30
2022-10-13T19:16:32.975Z,6.57
2022-10-13T19:19:01.043Z,7.18
2022-10-13T19:21:30.539Z,6.65
2022-10-13T19:24:00.848Z,7.40
2022-10-13T19:26:32.420Z,7.35
2022-10-13T19:29:02.814Z,6.78
2022-10-13T19:31:32.504Z,6.80
2022-10-13T19:34:01.378Z,7.28
2022-10-13T19:36:33.129Z,7.00
2022-10-13T19:39:03.833Z,7.05
2022-10-13T19:44:01.460Z,7.45
2022-10-13T19:46:29.680Z,7.00
2022-10-13T19:48:57.855Z,7.07
2022-10-13T19:51:25.941Z,7.20
2022-10-13T19:53:55.486Z,7.55
2022-10-13T19:56:26.059Z,6.78
2022-10-13T19:58:55.011Z,7.00
2022-10-13T20:01:24.025Z,7.45
2022-10-13T20:03:53.649Z,7.57
2022-10-13T20:06:22.505Z,7.00
2022-10-13T20:08:53.744Z,7.10
2022-10-13T20:11:24.489Z,6.75
2022-10-13T20:13:53.604Z,6.88
2022-10-13T20:16:23.565Z,7.32
2022-10-13T20:18:55.890Z,6.90
2022-10-13T20:21:24.925Z,6.95
2022-10-13T20:23:53.660Z,6.70
2022-10-13T20:26:24.104Z,7.65
2022-10-13T20:28:53.181Z,6.80
2022-10-13T20:31:23.005Z,7.43
2022-10-13T20:33:55.149Z,6.63
2022-10-13T20:36:24.585Z,6.68
2022-10-13T20:38:52.925Z,6.90
2022-10-13T20:41:24.732Z,7.43
2022-10-13T20:43:54.119Z,7.00
2022-10-13T20:46:23.651Z,6.93
2022-10-13T20:51:42.644Z,7.22
2022-10-13T20:54:11.581Z,7.90
2022-10-13T20:56:41.791Z,6.78
2022-10-13T20:59:11.876Z,6.53
2022-10-13T21:01:40.001Z,6.90
2022-10-13T21:04:08.190Z,6.95
2022-10-13T21:06:36.929Z,6.72
2022-10-13T21:09:06.442Z,6.97
2022-10-13T21:11:34.827Z,6.57
2022-10-13T21:14:06.995Z,6.72
2022-10-13T21:16:35.870Z,7.20
2022-10-13T21:19:04.593Z,7.28
2022-10-13T21:21:34.571Z,6.97
2022-10-13T21:24:05.623Z,6.50
2022-10-13T21:26:34.533Z,7.07
2022-10-13T21:29:04.162Z,6.57
2022-10-13T21:31:32.467Z,6.40
2022-10-13T21:34:01.008Z,6.38
2022-10-13T21:36:30.976Z,7.20
2022-10-13T21:39:01.173Z,7.10
2022-10-13T21:41:29.627Z,7.33
2022-10-13T21:43:58.292Z,6.53
2022-10-13T21:46:29.543Z,6.50
2022-10-13T21:48:59.337Z,7.15
2022-10-13T21:51:29.624Z,7.57
2022-10-13T21:53:59.417Z,6.65
2022-10-13T21:56:28.649Z,6.72
2022-10-13T21:58:57.115Z,6.72
2022-10-13T22:01:26.932Z,6.57
2022-10-13T22:03:56.378Z,6.45
2022-10-13T22:06:25.362Z,6.78
2022-10-13T22:08:54.916Z,6.88
2022-10-13T22:11:23.881Z,7.40
2022-10-13T22:13:52.576Z,6.68
2022-10-13T22:16:29.913Z,6.70
2022-10-13T22:18:59.743Z,7.03
2022-10-13T22:21:30.762Z,6.82
2022-10-13T22:24:00.407Z,6.78
2022-10-13T22:26:29.672Z,6.93
2022-10-13T22:28:59.085Z,6.45
2022-10-13T22:31:28.309Z,5.68
2022-10-13T22:33:56.620Z,7.05
2022-10-13T22:36:27.491Z,6.38
2022-10-13T22:41:25.188Z,6.25
2022-10-13T22:43:54.977Z,6.55
2022-10-13T22:46:27.531Z,7.05
2022-10-13T22:48:56.559Z,6.28
2022-10-13T22:51:28.259Z,6.65
2022-10-13T22:53:56.984Z,6.00
2022-10-13T22:56:26.967Z,6.20
2022-10-13T22:58:57.437Z,6.72
2022-10-13T23:01:25.948Z,6.72
2022-10-13T23:03:55.258Z,6.72
2022-10-13T23:06:26.372Z,6.57
2022-10-13T23:08:54.680Z,6.60
2022-10-13T23:11:23.426Z,6.57
2022-10-13T23:13:51.800Z,6.70
2022-10-13T23:16:22.639Z,6.72
2022-10-13T23:18:51.302Z,6.13
2022-10-13T23:21:21.596Z,6.47
2022-10-13T23:23:55.611Z,6.45
2022-10-13T23:26:23.907Z,6.72
2022-10-13T23:28:52.321Z,6.18
2022-10-13T23:31:20.459Z,6.90
2022-10-13T23:33:48.820Z,6.75
2022-10-13T23:36:19.629Z,6.45
2022-10-13T23:38:47.867Z,6.43
2022-10-13T23:41:19.179Z,6.25
2022-10-13T23:43:47.289Z,6.68
2022-10-13T23:46:15.381Z,6.72
2022-10-13T23:48:43.445Z,6.80
2022-10-13T23:51:14.423Z,6.03
2022-10-13T23:56:12.105Z,6.70
2022-10-13T23:58:43.189Z,6.28
